createdAt,value
2022-09-28T00:01:16.948Z,14.73
2022-09-28T00:03:46.244Z,9.52
2022-09-28T00:06:17.937Z,26.52
2022-09-28T00:08:45.656Z,21.08
2022-09-28T00:11:14.746Z,14.35
2022-09-28T00:16:17.204Z,25.35
2022-09-28T00:18:45.161Z,28.60
2022-09-28T00:21:22.561Z,14.05
2022-09-28T00:24:24.076Z,17.50
2022-09-28T00:26:57.225Z,25.00
2022-09-28T00:29:34.206Z,23.52
2022-09-28T00:32:05.162Z,19.88
2022-09-28T00:34:45.303Z,20.90
2022-09-28T00:37:13.735Z,17.40
2022-09-28T00:39:40.993Z,21.97
2022-09-28T00:42:14.519Z,18.20
2022-09-28T00:44:56.284Z,15.43
2022-09-28T00:47:50.268Z,16.95
2022-09-28T00:50:35.212Z,14.13
2022-09-28T00:53:20.804Z,14.35
2022-09-28T00:55:56.597Z,13.88
2022-09-28T00:58:38.064Z,12.40
2022-09-28T01:01:05.637Z,9.98
2022-09-28T01:03:33.569Z,6.00
2022-09-28T01:06:04.396Z,18.95
2022-09-28T01:08:33.852Z,8.50
2022-09-28T01:11:01.511Z,9.77
2022-09-28T01:13:31.522Z,10.25
2022-09-28T01:16:01.830Z,7.28
2022-09-28T01:18:53.914Z,9.25
2022-09-28T01:21:25.457Z,20.48
2022-09-28T01:24:09.750Z,29.35
2022-09-28T01:27:01.875Z,21.40
2022-09-28T01:29:53.176Z,20.65
2022-09-28T01:32:29.004Z,16.63
2022-09-28T01:35:02.160Z,29.25
2022-09-28T01:37:47.194Z,16.38
2022-09-28T01:40:16.264Z,14.63
2022-09-28T01:45:27.644Z,24.83
2022-09-28T01:48:01.390Z,17.50
2022-09-28T01:50:33.586Z,15.55
2022-09-28T01:53:06.891Z,22.85
2022-09-28T01:55:44.332Z,18.05
2022-09-28T01:59:12.485Z,29.77
2022-09-28T02:01:52.432Z,20.87
2022-09-28T02:04:30.670Z,15.13
2022-09-28T02:07:15.881Z,16.05
2022-09-28T02:09:55.364Z,12.07
2022-09-28T02:12:42.333Z,8.60
2022-09-28T02:16:05.651Z,12.18
2022-09-28T02:18:33.564Z,18.23
2022-09-28T02:21:17.906Z,21.17
2022-09-28T02:23:55.789Z,9.88
2022-09-28T02:26:30.583Z,9.70
2022-09-28T02:28:58.676Z,7.80
2022-09-28T02:31:27.267Z,7.38
2022-09-28T02:33:57.486Z,8.65
2022-09-28T02:36:29.056Z,7.22
2022-09-28T02:38:57.860Z,5.90
2022-09-28T02:42:05.111Z,4.22
2022-09-28T02:45:23.162Z,2.90
2022-09-28T02:48:44.237Z,1.73
2022-09-28T02:51:47.431Z,5.15
2022-09-28T02:54:29.346Z,4.32
2022-09-28T02:57:22.094Z,5.97
2022-09-28T03:00:19.144Z,10.45
2022-09-28T03:03:06.141Z,7.65
2022-09-28T03:05:59.744Z,4.75
2022-09-28T03:08:54.068Z,9.07
2022-09-28T03:11:34.418Z,6.60
2022-09-28T03:14:03.697Z,10.05
2022-09-28T03:16:44.230Z,12.18
2022-09-28T03:19:20.650Z,6.38
2022-09-28T03:21:48.702Z,5.05
2022-09-28T03:24:15.873Z,6.03
2022-09-28T03:26:43.003Z,4.00
2022-09-28T03:29:11.385Z,12.47
2022-09-28T03:31:39.137Z,4.30
2022-09-28T03:34:06.589Z,6.80
2022-09-28T03:36:33.640Z,8.75
2022-09-28T03:39:00.991Z,11.82
2022-09-28T03:41:28.188Z,6.38
2022-09-28T03:43:55.375Z,11.77
2022-09-28T03:46:25.070Z,27.35
2022-09-28T03:48:58.303Z,52.97
2022-09-28T03:51:26.010Z,53.80
2022-09-28T03:53:53.927Z,49.93
2022-09-28T03:56:21.428Z,43.13
2022-09-28T03:58:48.558Z,31.17
2022-09-28T04:01:17.901Z,44.40
2022-09-28T04:03:47.426Z,43.33
2022-09-28T04:06:14.787Z,39.53
2022-09-28T04:08:42.799Z,63.70
2022-09-28T04:11:09.982Z,64.38
2022-09-28T04:13:37.279Z,38.22
2022-09-28T04:16:06.923Z,34.88
2022-09-28T04:18:35.757Z,41.05
2022-09-28T04:21:37.388Z,24.55
2022-09-28T04:24:10.689Z,40.55
2022-09-28T04:26:38.229Z,23.57
2022-09-28T04:29:18.279Z,13.98
2022-09-28T04:31:54.576Z,19.52
2022-09-28T04:34:31.898Z,17.92
2022-09-28T04:37:01.841Z,22.65
2022-09-28T04:39:29.041Z,19.95
2022-09-28T04:41:57.132Z,20.77
2022-09-28T04:44:24.322Z,29.10
2022-09-28T04:46:59.667Z,24.50
2022-09-28T04:49:28.836Z,26.02
2022-09-28T04:52:06.185Z,27.55
2022-09-28T04:54:35.478Z,39.30
2022-09-28T04:57:03.165Z,41.30
2022-09-28T04:59:30.264Z,44.20
2022-09-28T05:01:57.412Z,33.78
2022-09-28T05:04:43.161Z,41.00
2022-09-28T05:07:30.643Z,15.95
2022-09-28T05:10:00.916Z,19.80
2022-09-28T05:12:28.041Z,19.85
2022-09-28T05:14:55.901Z,23.75
2022-09-28T05:17:23.211Z,32.35
2022-09-28T05:20:02.210Z,23.25
2022-09-28T05:22:29.425Z,33.63
2022-09-28T05:24:57.622Z,23.30
2022-09-28T05:27:25.109Z,19.20
2022-09-28T05:30:00.938Z,12.75
2022-09-28T05:32:30.857Z,12.20
2022-09-28T05:35:06.383Z,12.27
2022-09-28T05:37:43.043Z,13.68
2022-09-28T05:40:10.834Z,9.25
2022-09-28T05:45:06.781Z,8.75
2022-09-28T05:47:42.356Z,8.55
2022-09-28T05:50:11.767Z,12.07
2022-09-28T05:52:39.588Z,9.30
2022-09-28T05:55:08.146Z,7.38
2022-09-28T05:57:35.548Z,10.07
2022-09-28T06:00:08.368Z,11.32
2022-09-28T06:02:39.766Z,9.35
2022-09-28T06:05:09.865Z,11.10
2022-09-28T06:07:37.073Z,8.53
2022-09-28T06:10:05.050Z,6.45
2022-09-28T06:12:40.610Z,9.93
2022-09-28T06:15:13.492Z,13.60
2022-09-28T06:17:40.802Z,12.43
2022-09-28T06:20:34.470Z,10.45
2022-09-28T06:23:13.494Z,13.77
2022-09-28T06:25:41.125Z,17.33
2022-09-28T06:28:13.813Z,15.25
2022-09-28T06:30:42.460Z,17.17
2022-09-28T06:33:14.451Z,18.50
2022-09-28T06:35:41.886Z,17.95
2022-09-28T06:38:09.453Z,24.15
2022-09-28T06:40:37.676Z,22.50
2022-09-28T06:43:14.421Z,13.30
2022-09-28T06:46:00.836Z,14.85
2022-09-28T06:48:37.460Z,11.15
2022-09-28T06:51:06.459Z,11.77
2022-09-28T06:53:39.819Z,15.10
2022-09-28T06:58:46.820Z,11.27
2022-09-28T07:01:14.181Z,12.80
2022-09-28T07:04:01.164Z,18.25
2022-09-28T07:06:47.628Z,8.23
2022-09-28T07:09:38.146Z,10.02
2022-09-28T07:12:44.013Z,19.00
2022-09-28T07:15:33.964Z,15.32
2022-09-28T07:18:04.662Z,16.38
2022-09-28T07:20:45.613Z,12.40
2022-09-28T07:23:19.707Z,8.05
2022-09-28T07:26:08.339Z,13.80
2022-09-28T07:28:55.178Z,8.98
2022-09-28T07:31:33.101Z,24.92
2022-09-28T07:34:17.950Z,18.25
2022-09-28T07:39:25.268Z,33.90
2022-09-28T07:41:54.398Z,24.98
2022-09-28T07:44:24.426Z,27.35
2022-09-28T07:46:55.406Z,19.27
2022-09-28T07:49:38.771Z,15.90
2022-09-28T07:52:24.388Z,23.73
2022-09-28T07:55:18.759Z,15.95
2022-09-28T07:58:00.492Z,32.70
2022-09-28T08:00:48.681Z,18.02
2022-09-28T08:03:18.774Z,20.52
2022-09-28T08:05:46.774Z,11.10
2022-09-28T08:08:14.924Z,18.87
2022-09-28T08:10:46.865Z,25.17
2022-09-28T08:13:33.477Z,28.58
2022-09-28T08:16:15.380Z,18.85
2022-09-28T08:18:56.978Z,15.55
2022-09-28T08:21:42.927Z,15.82
2022-09-28T08:24:10.759Z,35.00
2022-09-28T08:26:37.949Z,10.97
2022-09-28T08:29:05.765Z,10.95
2022-09-28T08:32:01.493Z,15.35
2022-09-28T08:34:40.401Z,26.23
2022-09-28T08:37:26.351Z,17.13
2022-09-28T08:40:25.250Z,9.63
2022-09-28T08:43:42.376Z,10.93
2022-09-28T08:46:29.658Z,2.03
2022-09-28T08:49:32.761Z,6.20
2022-09-28T08:52:38.414Z,6.60
2022-09-28T08:55:37.157Z,5.95
2022-09-28T08:58:27.729Z,4.00
2022-09-28T09:00:54.881Z,13.60
2022-09-28T09:03:44.017Z,5.72
2022-09-28T09:07:03.605Z,7.70
2022-09-28T09:09:55.233Z,10.00
2022-09-28T09:12:47.360Z,4.10
2022-09-28T09:15:32.648Z,16.05
2022-09-28T09:18:39.842Z,10.20
2022-09-28T09:21:38.925Z,2.75
2022-09-28T09:24:26.641Z,10.65
2022-09-28T09:27:26.158Z,8.40
2022-09-28T09:30:06.115Z,7.90
2022-09-28T09:33:23.507Z,7.18
2022-09-28T09:36:41.272Z,3.33
2022-09-28T09:39:51.570Z,4.07
2022-09-28T09:42:44.726Z,3.47
2022-09-28T09:46:14.936Z,5.65
2022-09-28T09:49:14.167Z,5.95
2022-09-28T09:52:06.052Z,5.40
2022-09-28T09:54:37.530Z,6.57
2022-09-28T09:57:10.618Z,5.53
2022-09-28T10:00:01.371Z,8.60
2022-09-28T10:03:02.414Z,3.25
2022-09-28T10:05:47.508Z,5.43
2022-09-28T10:08:19.379Z,4.60
2022-09-28T10:11:07.900Z,2.80
2022-09-28T10:13:39.724Z,3.80
2022-09-28T10:16:23.831Z,35.97
2022-09-28T10:19:00.141Z,4.63
2022-09-28T10:21:50.132Z,6.95
2022-09-28T10:24:45.492Z,5.82
2022-09-28T10:27:27.198Z,19.30
2022-09-28T10:30:09.068Z,17.20
2022-09-28T10:32:48.384Z,8.00
2022-09-28T10:35:18.647Z,14.30
2022-09-28T10:38:12.273Z,12.38
2022-09-28T10:40:59.090Z,4.57
2022-09-28T10:44:07.982Z,5.35
2022-09-28T10:46:40.826Z,4.05
2022-09-28T10:49:17.992Z,14.05
2022-09-28T10:51:55.558Z,19.83
2022-09-28T10:54:30.219Z,8.90
2022-09-28T10:56:59.378Z,9.15
2022-09-28T10:59:42.612Z,9.55
2022-09-28T11:02:36.986Z,9.20
2022-09-28T11:05:23.872Z,21.02
2022-09-28T11:08:02.049Z,16.40
2022-09-28T11:10:36.850Z,3.92
2022-09-28T11:13:16.741Z,3.42
2022-09-28T11:15:53.677Z,3.60
2022-09-28T11:18:34.492Z,6.80
2022-09-28T11:21:20.990Z,4.82
2022-09-28T11:24:23.810Z,2.45
2022-09-28T11:26:56.232Z,19.20
2022-09-28T11:29:34.381Z,8.40
2022-09-28T11:32:21.308Z,10.48
2022-09-28T11:35:27.515Z,3.88
2022-09-28T11:38:25.367Z,4.07
2022-09-28T11:41:42.416Z,5.55
2022-09-28T11:44:44.311Z,13.60
2022-09-28T11:47:53.884Z,10.55
2022-09-28T11:50:51.672Z,6.57
2022-09-28T11:53:48.713Z,5.85
2022-09-28T11:56:33.015Z,19.52
2022-09-28T11:59:30.166Z,5.47
2022-09-28T12:02:39.767Z,5.53
2022-09-28T12:05:56.678Z,3.33
2022-09-28T12:08:32.901Z,9.65
2022-09-28T12:11:31.823Z,5.55
2022-09-28T12:14:37.696Z,2.38
2022-09-28T12:17:36.068Z,10.18
2022-09-28T12:22:38.824Z,8.48
2022-09-28T12:25:14.400Z,10.63
2022-09-28T12:28:05.990Z,6.13
2022-09-28T12:30:39.919Z,5.57
2022-09-28T12:33:12.453Z,6.35
2022-09-28T12:35:54.501Z,12.63
2022-09-28T12:38:43.315Z,6.40
2022-09-28T12:41:51.335Z,12.73
2022-09-28T12:44:33.896Z,5.07
2022-09-28T12:47:22.704Z,12.82
2022-09-28T12:50:37.696Z,6.60
2022-09-28T12:53:52.513Z,5.40
2022-09-28T12:56:51.213Z,3.30
2022-09-28T12:59:30.264Z,3.97
2022-09-28T13:02:30.317Z,4.50
2022-09-28T13:05:38.047Z,1.17
2022-09-28T13:08:24.203Z,4.45
2022-09-28T13:11:41.843Z,3.05
2022-09-28T13:15:07.920Z,3.67
2022-09-28T13:17:46.864Z,10.90
2022-09-28T13:20:45.331Z,9.18
2022-09-28T13:26:04.348Z,1.75
2022-09-28T13:28:33.133Z,8.93
2022-09-28T13:33:36.901Z,1.85
2022-09-28T13:36:32.553Z,2.95
2022-09-28T13:39:01.052Z,2.95
2022-09-28T13:44:12.395Z,3.80
2022-09-28T13:47:21.109Z,2.33
2022-09-28T13:49:55.649Z,1.45
2022-09-28T13:52:39.664Z,13.55
2022-09-28T13:55:27.720Z,14.27
2022-09-28T13:58:13.978Z,17.15
2022-09-28T14:01:19.261Z,8.60
2022-09-28T14:04:21.253Z,5.32
2022-09-28T14:07:30.175Z,13.63
2022-09-28T14:10:43.132Z,5.90
2022-09-28T14:13:11.532Z,1.40
2022-09-28T14:15:43.566Z,5.43
2022-09-28T14:18:33.954Z,2.90
2022-09-28T14:21:41.340Z,19.70
2022-09-28T14:24:49.076Z,7.87
2022-09-28T14:27:41.348Z,5.00
2022-09-28T14:30:11.328Z,11.80
2022-09-28T14:32:44.384Z,3.42
2022-09-28T14:35:48.874Z,5.85
2022-09-28T14:38:46.495Z,3.65
2022-09-28T14:41:17.288Z,2.40
2022-09-28T14:43:44.275Z,3.63
2022-09-28T14:46:11.770Z,5.38
2022-09-28T14:48:52.627Z,3.70
2022-09-28T14:51:25.734Z,2.92
2022-09-28T14:54:09.888Z,10.32
2022-09-28T14:56:51.865Z,8.25
2022-09-28T14:59:29.792Z,6.00
2022-09-28T15:02:10.586Z,3.15
2022-09-28T15:05:07.893Z,8.13
2022-09-28T15:07:51.501Z,5.60
2022-09-28T15:10:36.214Z,1.65
2022-09-28T15:13:34.796Z,3.15
2022-09-28T15:16:10.847Z,6.13
2022-09-28T15:18:59.108Z,7.82
2022-09-28T15:21:39.087Z,4.32
2022-09-28T15:24:26.525Z,6.13
2022-09-28T15:26:54.069Z,2.40
2022-09-28T15:29:22.428Z,4.43
2022-09-28T15:31:54.135Z,2.60
2022-09-28T15:34:51.219Z,5.88
2022-09-28T15:37:25.892Z,6.35
2022-09-28T15:39:55.773Z,3.33
2022-09-28T15:42:23.279Z,7.07
2022-09-28T15:45:02.841Z,8.27
2022-09-28T15:47:32.234Z,7.20
2022-09-28T15:50:18.213Z,3.33
2022-09-28T15:53:03.904Z,6.18
2022-09-28T15:55:41.809Z,6.05
2022-09-28T15:58:11.902Z,4.82
2022-09-28T16:00:39.611Z,5.43
2022-09-28T16:03:06.536Z,4.18
2022-09-28T16:05:56.333Z,4.55
2022-09-28T16:08:48.273Z,7.70
2022-09-28T16:11:27.236Z,5.10
2022-09-28T16:14:23.594Z,6.70
2022-09-28T16:16:52.556Z,9.43
2022-09-28T16:19:31.380Z,6.80
2022-09-28T16:22:02.786Z,8.75
2022-09-28T16:24:34.692Z,10.00
2022-09-28T16:27:06.200Z,11.68
2022-09-28T16:29:41.378Z,11.80
2022-09-28T16:32:44.703Z,5.70
2022-09-28T16:36:01.142Z,5.57
2022-09-28T16:38:28.246Z,4.15
2022-09-28T16:41:00.665Z,9.32
2022-09-28T16:43:30.597Z,4.85
2022-09-28T16:46:11.393Z,6.13
2022-09-28T16:48:48.265Z,5.68
2022-09-28T16:51:20.913Z,7.30
2022-09-28T16:54:06.734Z,3.47
2022-09-28T16:56:35.786Z,5.13
2022-09-28T16:59:03.870Z,7.07
2022-09-28T17:01:31.336Z,5.00
2022-09-28T17:03:58.613Z,2.70
2022-09-28T17:06:26.809Z,2.85
2022-09-28T17:08:56.026Z,6.13
2022-09-28T17:11:24.913Z,9.25
2022-09-28T17:13:58.265Z,11.07
2022-09-28T17:17:06.103Z,9.68
2022-09-28T17:19:24.237Z,8.75
2022-09-28T17:21:52.256Z,8.52
2022-09-28T17:24:20.256Z,11.95
2022-09-28T17:26:50.456Z,9.65
2022-09-28T17:29:18.495Z,9.68
2022-09-28T17:31:46.961Z,10.53
2022-09-28T17:34:16.035Z,14.80
2022-09-28T17:36:44.225Z,10.00
2022-09-28T17:39:17.847Z,9.27
2022-09-28T17:41:45.560Z,9.32
2022-09-28T17:44:15.727Z,9.95
2022-09-28T17:46:47.798Z,5.30
2022-09-28T17:49:16.392Z,8.10
2022-09-28T17:51:43.769Z,11.13
2022-09-28T17:54:12.416Z,13.15
2022-09-28T17:56:39.641Z,18.35
2022-09-28T17:59:11.937Z,20.80
2022-09-28T18:01:40.413Z,23.52
2022-09-28T18:04:15.908Z,21.77
2022-09-28T18:06:55.207Z,22.80
2022-09-28T18:09:24.418Z,20.17
2022-09-28T18:11:57.593Z,32.47
2022-09-28T18:14:24.725Z,25.70
2022-09-28T18:16:51.861Z,19.55
2022-09-28T18:19:19.031Z,22.95
2022-09-28T18:21:46.286Z,20.77
2022-09-28T18:24:13.427Z,14.95
2022-09-28T18:26:40.498Z,10.75
2022-09-28T18:29:07.606Z,20.17
2022-09-28T18:31:36.044Z,18.27
2022-09-28T18:34:03.275Z,12.68
2022-09-28T18:36:33.119Z,10.60
2022-09-28T18:39:00.889Z,8.38
2022-09-28T18:41:28.708Z,15.30
2022-09-28T18:44:01.795Z,10.20
2022-09-28T18:46:36.097Z,8.63
2022-09-28T18:49:04.122Z,13.32
2022-09-28T18:51:31.236Z,12.65
2022-09-28T18:53:59.456Z,7.20
2022-09-28T18:56:26.671Z,15.07
2022-09-28T18:58:53.894Z,18.58
2022-09-28T19:01:30.399Z,13.20
2022-09-28T19:04:04.781Z,7.22
2022-09-28T19:06:33.697Z,8.60
2022-09-28T19:09:01.297Z,12.13
2022-09-28T19:11:28.496Z,15.88
2022-09-28T19:13:56.012Z,10.77
2022-09-28T19:16:27.565Z,28.85
2022-09-28T19:19:01.492Z,34.22
2022-09-28T19:21:29.085Z,38.70
2022-09-28T19:23:59.372Z,32.13
2022-09-28T19:26:28.475Z,20.77
2022-09-28T19:28:57.202Z,14.73
2022-09-28T19:31:25.968Z,16.80
2022-09-28T19:33:53.050Z,13.07
2022-09-28T19:36:23.560Z,20.05
2022-09-28T19:38:53.072Z,20.55
2022-09-28T19:41:45.013Z,13.18
2022-09-28T19:44:26.867Z,15.80
2022-09-28T19:47:00.542Z,10.25
2022-09-28T19:49:32.469Z,11.95
2022-09-28T19:52:16.168Z,9.93
2022-09-28T19:55:00.465Z,6.18
2022-09-28T19:57:31.055Z,7.55
2022-09-28T20:00:02.802Z,11.77
2022-09-28T20:02:34.469Z,3.10
2022-09-28T20:05:02.196Z,6.18
2022-09-28T20:07:32.198Z,10.77
2022-09-28T20:09:59.243Z,5.32
2022-09-28T20:12:26.290Z,2.50
2022-09-28T20:14:53.653Z,11.48
2022-09-28T20:17:21.135Z,4.90
2022-09-28T20:19:50.429Z,9.23
2022-09-28T20:22:19.252Z,7.43
2022-09-28T20:24:46.561Z,7.28
2022-09-28T20:27:13.719Z,7.97
2022-09-28T20:29:42.423Z,7.50
2022-09-28T20:32:10.922Z,4.18
2022-09-28T20:34:38.137Z,6.38
2022-09-28T20:37:05.256Z,1.75
2022-09-28T20:39:32.733Z,4.07
2022-09-28T20:41:59.814Z,5.07
2022-09-28T20:44:26.961Z,5.55
2022-09-28T20:46:55.352Z,4.57
2022-09-28T20:49:22.566Z,5.32
2022-09-28T20:51:49.713Z,5.93
2022-09-28T20:54:16.912Z,9.43
2022-09-28T20:56:44.192Z,3.72
2022-09-28T20:59:12.167Z,3.05
2022-09-28T21:01:40.052Z,11.50
2022-09-28T21:04:09.787Z,5.70
2022-09-28T21:06:40.315Z,9.32
2022-09-28T21:09:09.837Z,3.83
2022-09-28T21:11:38.799Z,7.60
2022-09-28T21:16:34.683Z,9.00
2022-09-28T21:19:02.558Z,8.07
2022-09-28T21:21:29.717Z,6.32
2022-09-28T21:23:57.762Z,7.13
2022-09-28T21:26:29.086Z,5.15
2022-09-28T21:29:04.629Z,6.03
2022-09-28T21:31:41.804Z,2.42
2022-09-28T21:34:13.263Z,8.82
2022-09-28T21:36:42.814Z,4.65
2022-09-28T21:39:10.690Z,5.20
2022-09-28T21:41:37.971Z,4.93
2022-09-28T21:44:05.963Z,6.10
2022-09-28T21:46:34.160Z,3.72
2022-09-28T21:49:03.655Z,2.28
2022-09-28T21:51:30.924Z,6.90
2022-09-28T21:53:58.138Z,4.43
2022-09-28T21:56:26.149Z,4.88
2022-09-28T21:58:53.266Z,4.90
2022-09-28T22:01:24.911Z,7.65
2022-09-28T22:03:54.538Z,9.13
2022-09-28T22:06:27.220Z,4.20
2022-09-28T22:08:54.843Z,5.22
2022-09-28T22:11:25.182Z,8.38
2022-09-28T22:13:56.545Z,3.75
2022-09-28T22:16:27.755Z,8.90
2022-09-28T22:18:55.540Z,5.70
2022-09-28T22:21:28.749Z,7.78
2022-09-28T22:24:04.605Z,3.72
2022-09-28T22:26:34.319Z,4.50
2022-09-28T22:29:06.657Z,4.93
2022-09-28T22:31:39.616Z,4.25
2022-09-28T22:34:08.292Z,10.60
2022-09-28T22:36:35.832Z,10.07
2022-09-28T22:39:03.498Z,8.00
2022-09-28T22:41:31.468Z,7.72
2022-09-28T22:43:59.173Z,5.35
2022-09-28T22:46:28.848Z,4.57
2022-09-28T22:48:58.571Z,10.48
2022-09-28T22:51:27.971Z,3.30
2022-09-28T22:53:55.935Z,5.20
2022-09-28T22:56:23.453Z,5.30
2022-09-28T22:58:50.644Z,6.72
2022-09-28T23:01:29.461Z,11.10
2022-09-28T23:03:58.675Z,20.77
2022-09-28T23:06:28.427Z,12.07
2022-09-28T23:08:55.887Z,12.10
2022-09-28T23:11:22.997Z,14.40
2022-09-28T23:13:52.104Z,14.32
2022-09-28T23:18:48.477Z,9.77
2022-09-28T23:26:19.156Z,4.63
2022-09-28T23:28:46.543Z,10.25
2022-09-28T23:31:19.088Z,14.65
2022-09-28T23:33:47.159Z,15.45
2022-09-28T23:36:15.208Z,16.10
2022-09-28T23:38:42.489Z,9.77
2022-09-28T23:41:10.264Z,6.88
2022-09-28T23:43:37.403Z,12.88
2022-09-28T23:46:05.227Z,14.10
2022-09-28T23:48:32.916Z,20.27
2022-09-28T23:51:00.573Z,10.23
2022-09-28T23:53:28.861Z,10.60
2022-09-28T23:55:56.029Z,10.20
2022-09-28T23:58:23.525Z,8.80
